Time;durP1;ratioP1;P1;durP2;ratioP2;P2;SDS_P1;SDS_P2;PMS_P1;PMS_P2;Temp;Humidity;BMP_temperature;BMP_pressure;BME280_temperature;BME280_humidity;BME280_pressure;Samples;Min_cycle;Max_cycle;Signal;HPM_P1;HPM_P2
2023/02/17 00:00:59;;;;;;;9.63;7.40;;;;;;;;;;5009954;28;20227;-45
2023/02/17 00:03:25;;;;;;;11.98;7.60;;;;;;;;;;5014612;28;20184;-45
2023/02/17 00:05:51;;;;;;;10.57;7.55;;;;;;;;;;5010844;28;20193;-45
2023/02/17 00:08:17;;;;;;;8.95;7.45;;;;;;;;;;5015737;28;20181;-45
2023/02/17 00:10:43;;;;;;;10.00;7.85;;;;;;;;;;5016429;28;20318;-46
2023/02/17 00:13:09;;;;;;;11.15;7.28;;;;;;;;;;5014709;28;20219;-45
2023/02/17 00:15:37;;;;;;;11.52;7.40;;;;;;;;;;5009503;28;20177;-45
2023/02/17 00:18:03;;;;;;;10.65;7.55;;;;;;;;;;5013828;28;20540;-45
2023/02/17 00:20:29;;;;;;;9.57;7.15;;;;;;;;;;5011220;28;20200;-45
2023/02/17 00:22:55;;;;;;;9.35;7.10;;;;;;;;;;5015589;28;20192;-45
2023/02/17 00:25:21;;;;;;;9.52;7.70;;;;;;;;;;5014089;28;20250;-45
2023/02/17 00:27:47;;;;;;;9.13;7.32;;;;;;;;;;5011093;28;20246;-46
2023/02/17 00:30:13;;;;;;;9.35;7.07;;;;;;;;;;5015228;28;20445;-45
2023/02/17 00:32:39;;;;;;;9.43;7.70;;;;;;;;;;5015700;28;20302;-45
2023/02/17 00:35:05;;;;;;;12.48;7.10;;;;;;;;;;5014358;28;20185;-45
2023/02/17 00:37:33;;;;;;;9.82;7.07;;;;;;;;;;5004746;28;20228;-45
2023/02/17 00:39:59;;;;;;;12.00;7.47;;;;;;;;;;5009420;28;20507;-45
2023/02/17 00:42:25;;;;;;;9.55;7.18;;;;;;;;;;5015566;28;20191;-45
2023/02/17 00:44:51;;;;;;;11.32;7.75;;;;;;;;;;5014166;28;20192;-45
2023/02/17 00:47:17;;;;;;;11.07;7.40;;;;;;;;;;5009719;28;20263;-45
2023/02/17 00:49:43;;;;;;;10.38;6.82;;;;;;;;;;5009784;28;20192;-45
2023/02/17 00:52:09;;;;;;;11.48;7.30;;;;;;;;;;5013037;28;20607;-45
2023/02/17 00:54:35;;;;;;;11.00;6.30;;;;;;;;;;5010983;28;20184;-45
2023/02/17 00:57:01;;;;;;;7.75;6.63;;;;;;;;;;5009370;28;20225;-45
2023/02/17 00:59:27;;;;;;;8.60;7.07;;;;;;;;;;5010294;28;20583;-45
2023/02/17 01:01:52;;;;;;;9.30;6.88;;;;;;;;;;5009380;28;20192;-45
2023/02/17 01:04:18;;;;;;;8.90;6.80;;;;;;;;;;5007272;28;20191;-45
2023/02/17 01:06:44;;;;;;;9.00;6.50;;;;;;;;;;5007731;28;20185;-45
2023/02/17 01:09:12;;;;;;;8.38;7.05;;;;;;;;;;5005699;28;20196;-45
2023/02/17 01:11:39;;;;;;;8.00;6.60;;;;;;;;;;5016179;28;20183;-45
2023/02/17 01:14:06;;;;;;;10.25;6.93;;;;;;;;;;5012673;28;20604;-45
2023/02/17 01:16:34;;;;;;;8.43;6.70;;;;;;;;;;5003758;28;20212;-45
2023/02/17 01:19:00;;;;;;;9.23;6.32;;;;;;;;;;5009392;28;20177;-45
2023/02/17 01:21:27;;;;;;;10.35;6.90;;;;;;;;;;5012332;28;20279;-45
2023/02/17 01:23:54;;;;;;;8.45;6.70;;;;;;;;;;5013099;28;20326;-45
2023/02/17 01:26:21;;;;;;;10.18;7.03;;;;;;;;;;5005698;28;20485;-45
2023/02/17 01:28:48;;;;;;;8.55;6.57;;;;;;;;;;5008999;28;20208;-45
2023/02/17 01:31:14;;;;;;;9.85;6.85;;;;;;;;;;5013766;28;20555;-45
2023/02/17 01:33:40;;;;;;;8.63;6.40;;;;;;;;;;5012593;28;20219;-45
2023/02/17 01:36:08;;;;;;;11.05;6.78;;;;;;;;;;5011094;28;20177;-45
2023/02/17 01:38:34;;;;;;;10.07;6.30;;;;;;;;;;5010817;28;20478;-45
2023/02/17 01:41:00;;;;;;;7.97;6.32;;;;;;;;;;5011043;28;20189;-45
2023/02/17 01:43:26;;;;;;;8.65;6.00;;;;;;;;;;5011939;28;20188;-45
2023/02/17 01:45:53;;;;;;;10.48;6.32;;;;;;;;;;5009753;28;20185;-45
2023/02/17 01:48:23;;;;;;;7.03;6.18;;;;;;;;;;5010077;28;20560;-45
2023/02/17 01:50:53;;;;;;;9.55;5.97;;;;;;;;;;5007530;28;20770;-45
2023/02/17 01:53:21;;;;;;;7.30;6.10;;;;;;;;;;5010308;28;20511;-45
2023/02/17 01:55:48;;;;;;;8.80;6.22;;;;;;;;;;5005971;28;20227;-45
2023/02/17 01:58:15;;;;;;;8.70;6.15;;;;;;;;;;5006419;28;20180;-45
2023/02/17 02:00:42;;;;;;;8.55;6.60;;;;;;;;;;5003517;28;20470;-45
2023/02/17 02:03:10;;;;;;;8.60;5.72;;;;;;;;;;5011601;28;20188;-45
2023/02/17 02:05:37;;;;;;;8.43;6.03;;;;;;;;;;5005886;28;20192;-45
2023/02/17 02:08:03;;;;;;;7.63;6.07;;;;;;;;;;5005705;28;20181;-45
2023/02/17 02:10:29;;;;;;;8.02;6.60;;;;;;;;;;5014178;28;20195;-45
2023/02/17 02:12:55;;;;;;;9.25;6.75;;;;;;;;;;5014121;28;20209;-45
2023/02/17 02:15:22;;;;;;;9.07;6.60;;;;;;;;;;5014552;28;20208;-45
2023/02/17 02:18:03;;;;;;;8.43;6.78;;;;;;;;;;5007943;28;20200;-45
2023/02/17 02:20:44;;;;;;;10.02;6.53;;;;;;;;;;5005173;28;20207;-45
2023/02/17 02:23:13;;;;;;;7.93;5.85;;;;;;;;;;5012559;28;20204;-45
2023/02/17 02:25:45;;;;;;;7.38;5.85;;;;;;;;;;5013459;28;20581;-45
2023/02/17 02:28:26;;;;;;;8.52;5.97;;;;;;;;;;5000070;28;20762;-45
2023/02/17 02:30:59;;;;;;;8.25;6.40;;;;;;;;;;5014444;28;20191;-46
2023/02/17 02:33:38;;;;;;;7.93;5.78;;;;;;;;;;5007197;28;20584;-45
2023/02/17 02:36:10;;;;;;;7.90;6.53;;;;;;;;;;5011401;28;20242;-45
2023/02/17 02:38:44;;;;;;;7.80;6.40;;;;;;;;;;5012725;28;20242;-45
2023/02/17 02:41:13;;;;;;;9.25;5.90;;;;;;;;;;5011796;28;20198;-45
2023/02/17 02:43:39;;;;;;;9.52;5.75;;;;;;;;;;5005555;28;20196;-45
2023/02/17 02:46:05;;;;;;;7.65;5.82;;;;;;;;;;5008562;28;20192;-45
2023/02/17 02:48:31;;;;;;;8.60;6.13;;;;;;;;;;5012287;28;20195;-45
2023/02/17 02:51:01;;;;;;;7.85;5.90;;;;;;;;;;5011787;28;20750;-45
2023/02/17 02:53:45;;;;;;;11.25;6.18;;;;;;;;;;5010623;28;20201;-46
2023/02/17 02:56:17;;;;;;;8.68;6.38;;;;;;;;;;5014195;28;20172;-45
2023/02/17 02:58:56;;;;;;;6.80;5.80;;;;;;;;;;5014074;28;20185;-45
2023/02/17 03:01:29;;;;;;;6.85;5.60;;;;;;;;;;5015145;28;20264;-45
2023/02/17 03:04:04;;;;;;;7.03;6.05;;;;;;;;;;5014829;28;20242;-45
2023/02/17 03:06:39;;;;;;;10.45;6.10;;;;;;;;;;5013383;28;20276;-45
2023/02/17 03:09:05;;;;;;;8.75;6.00;;;;;;;;;;5007074;28;20192;-46
2023/02/17 03:11:31;;;;;;;6.63;5.72;;;;;;;;;;5017063;28;20196;-46
2023/02/17 03:14:01;;;;;;;8.15;5.88;;;;;;;;;;5009835;28;20216;-46
2023/02/17 03:16:27;;;;;;;9.05;6.28;;;;;;;;;;5013556;28;20177;-46
2023/02/17 03:18:53;;;;;;;8.98;5.80;;;;;;;;;;5012397;28;20207;-46
2023/02/17 03:21:19;;;;;;;7.72;5.50;;;;;;;;;;5008190;28;20793;-45
2023/02/17 03:23:45;;;;;;;7.22;5.47;;;;;;;;;;5012743;28;20181;-46
2023/02/17 03:26:10;;;;;;;7.65;5.90;;;;;;;;;;5016717;28;20211;-45
2023/02/17 03:28:36;;;;;;;6.35;5.75;;;;;;;;;;5012380;28;20200;-45
2023/02/17 03:31:02;;;;;;;6.25;5.60;;;;;;;;;;5012965;28;20180;-45
2023/02/17 03:33:28;;;;;;;6.70;5.45;;;;;;;;;;5014039;28;20233;-45
2023/02/17 03:35:54;;;;;;;9.77;6.15;;;;;;;;;;5017544;28;20172;-45
2023/02/17 03:38:20;;;;;;;7.75;5.88;;;;;;;;;;5005201;28;20448;-45
2023/02/17 03:40:46;;;;;;;6.88;5.75;;;;;;;;;;5015089;28;20192;-45
2023/02/17 03:43:12;;;;;;;8.10;6.20;;;;;;;;;;5009487;28;20197;-45
2023/02/17 03:45:38;;;;;;;8.23;6.18;;;;;;;;;;5013623;28;20601;-45
2023/02/17 03:48:04;;;;;;;7.28;5.60;;;;;;;;;;5013517;28;20696;-45
2023/02/17 03:50:30;;;;;;;8.35;5.78;;;;;;;;;;5010668;28;20203;-45
2023/02/17 03:52:56;;;;;;;7.13;5.63;;;;;;;;;;5013728;28;20216;-46
2023/02/17 03:55:22;;;;;;;8.82;6.15;;;;;;;;;;5007043;28;20191;-45
2023/02/17 03:57:48;;;;;;;6.88;6.10;;;;;;;;;;5012872;28;20307;-45
2023/02/17 04:00:15;;;;;;;7.47;6.15;;;;;;;;;;5012083;28;20198;-45
2023/02/17 04:02:40;;;;;;;8.55;6.43;;;;;;;;;;5008688;28;20475;-45
2023/02/17 04:05:07;;;;;;;7.47;6.00;;;;;;;;;;5014523;28;20185;-45
2023/02/17 04:07:32;;;;;;;8.68;6.72;;;;;;;;;;5005029;28;20231;-45
2023/02/17 04:09:58;;;;;;;7.43;6.22;;;;;;;;;;5011988;28;20196;-45
2023/02/17 04:12:24;;;;;;;8.27;6.13;;;;;;;;;;5009476;28;20223;-46
2023/02/17 04:14:50;;;;;;;8.85;6.45;;;;;;;;;;5017183;28;20296;-46
2023/02/17 04:17:16;;;;;;;9.27;6.70;;;;;;;;;;5007525;28;20182;-46
2023/02/17 04:19:42;;;;;;;8.77;6.55;;;;;;;;;;5013159;28;20184;-46
2023/02/17 04:22:08;;;;;;;6.00;5.25;;;;;;;;;;4998643;28;20177;-46
2023/02/17 04:24:35;;;;;;;8.35;5.97;;;;;;;;;;5017127;28;20602;-46
2023/02/17 04:27:01;;;;;;;8.15;5.80;;;;;;;;;;5015513;28;20522;-46
2023/02/17 04:29:27;;;;;;;9.30;6.18;;;;;;;;;;5015564;28;20196;-45
2023/02/17 04:31:53;;;;;;;8.15;6.63;;;;;;;;;;5014921;28;20181;-45
2023/02/17 04:34:19;;;;;;;7.93;6.68;;;;;;;;;;5009480;28;20216;-45
2023/02/17 04:36:45;;;;;;;10.30;6.80;;;;;;;;;;5015559;28;20260;-45
2023/02/17 04:39:11;;;;;;;8.25;6.28;;;;;;;;;;5014172;28;20215;-45
2023/02/17 04:41:37;;;;;;;8.45;6.70;;;;;;;;;;5008613;28;20173;-46
2023/02/17 04:44:03;;;;;;;9.15;6.40;;;;;;;;;;5010977;28;20466;-46
2023/02/17 04:46:29;;;;;;;8.02;5.93;;;;;;;;;;5013339;28;20207;-45
2023/02/17 04:48:55;;;;;;;7.47;6.40;;;;;;;;;;5015741;28;20188;-45
2023/02/17 04:51:20;;;;;;;7.03;5.57;;;;;;;;;;5014427;28;20195;-45
2023/02/17 04:53:46;;;;;;;7.47;5.43;;;;;;;;;;5007459;28;20618;-45
2023/02/17 04:56:12;;;;;;;5.72;5.13;;;;;;;;;;5007997;28;20332;-45
2023/02/17 04:58:38;;;;;;;9.02;6.28;;;;;;;;;;5013665;28;20204;-45
2023/02/17 05:01:04;;;;;;;6.30;5.43;;;;;;;;;;5007788;28;20603;-46
2023/02/17 05:03:30;;;;;;;6.07;5.13;;;;;;;;;;5009560;28;20189;-45
2023/02/17 05:05:56;;;;;;;6.88;5.38;;;;;;;;;;5016138;28;20192;-45
2023/02/17 05:08:22;;;;;;;6.20;5.30;;;;;;;;;;5000602;28;20185;-45
2023/02/17 05:10:49;;;;;;;6.85;5.63;;;;;;;;;;5012189;28;20185;-45
2023/02/17 05:13:15;;;;;;;6.65;5.60;;;;;;;;;;5006553;28;20243;-45
2023/02/17 05:15:42;;;;;;;8.73;4.88;;;;;;;;;;5015928;28;20204;-46
2023/02/17 05:18:08;;;;;;;6.68;5.40;;;;;;;;;;5012319;28;20180;-45
2023/02/17 05:20:34;;;;;;;6.57;5.28;;;;;;;;;;5015425;28;20184;-45
2023/02/17 05:23:00;;;;;;;5.40;4.80;;;;;;;;;;5010343;28;20224;-45
2023/02/17 05:25:26;;;;;;;6.03;4.85;;;;;;;;;;5007516;28;20185;-45
2023/02/17 05:27:52;;;;;;;5.88;5.03;;;;;;;;;;5010548;28;20305;-45
2023/02/17 05:30:18;;;;;;;6.05;5.10;;;;;;;;;;5006397;28;20184;-45
2023/02/17 05:32:44;;;;;;;7.03;4.90;;;;;;;;;;5011375;28;20552;-45
2023/02/17 05:35:10;;;;;;;5.68;4.70;;;;;;;;;;5011700;28;20177;-45
2023/02/17 05:37:36;;;;;;;6.25;4.82;;;;;;;;;;5013335;28;20547;-45
2023/02/17 05:40:02;;;;;;;6.82;4.70;;;;;;;;;;5013991;28;20178;-45
2023/02/17 05:42:28;;;;;;;7.22;4.85;;;;;;;;;;5013620;28;20472;-45
2023/02/17 05:44:54;;;;;;;7.00;5.13;;;;;;;;;;5015471;28;20211;-45
2023/02/17 05:47:20;;;;;;;6.35;4.80;;;;;;;;;;5013870;28;20180;-45
2023/02/17 05:49:46;;;;;;;6.55;5.13;;;;;;;;;;5013395;28;20172;-45
2023/02/17 05:52:12;;;;;;;7.13;4.80;;;;;;;;;;5013439;28;20583;-45
2023/02/17 05:54:38;;;;;;;8.32;5.50;;;;;;;;;;5010076;28;20716;-45
2023/02/17 05:57:04;;;;;;;6.47;5.88;;;;;;;;;;5010078;28;20208;-45
2023/02/17 05:59:30;;;;;;;6.25;5.20;;;;;;;;;;5009898;28;20193;-45
2023/02/17 06:01:56;;;;;;;6.57;5.10;;;;;;;;;;5007910;28;20469;-45
2023/02/17 06:04:22;;;;;;;6.05;5.13;;;;;;;;;;5002993;28;20185;-45
2023/02/17 06:06:48;;;;;;;7.13;5.38;;;;;;;;;;5007814;28;20189;-45
2023/02/17 06:09:13;;;;;;;8.13;5.05;;;;;;;;;;5006244;28;20516;-45
2023/02/17 06:11:39;;;;;;;6.40;5.55;;;;;;;;;;5013746;28;20217;-45
2023/02/17 06:14:05;;;;;;;6.35;5.03;;;;;;;;;;5014037;28;20598;-45
2023/02/17 06:16:31;;;;;;;6.22;5.30;;;;;;;;;;5011766;28;20200;-45
2023/02/17 06:18:58;;;;;;;7.13;5.47;;;;;;;;;;5008501;28;20188;-45
2023/02/17 06:21:24;;;;;;;7.45;5.20;;;;;;;;;;5010975;28;20270;-45
2023/02/17 06:23:50;;;;;;;8.85;5.53;;;;;;;;;;5014678;28;20230;-45
2023/02/17 06:26:17;;;;;;;6.03;5.43;;;;;;;;;;5013386;28;20296;-45
2023/02/17 06:28:43;;;;;;;6.55;5.57;;;;;;;;;;5006752;28;20187;-46
2023/02/17 06:31:09;;;;;;;6.05;5.00;;;;;;;;;;5017691;28;20261;-45
2023/02/17 06:33:35;;;;;;;5.05;3.47;;;;;;;;;;5017723;28;20236;-46
2023/02/17 06:36:01;;;;;;;6.97;3.20;;;;;;;;;;5018587;28;20169;-45
2023/02/17 06:38:27;;;;;;;5.03;3.38;;;;;;;;;;5016111;28;20254;-45
2023/02/17 06:40:54;;;;;;;8.15;3.25;;;;;;;;;;5018235;28;20556;-48
2023/02/17 06:43:20;;;;;;;7.70;2.97;;;;;;;;;;5009092;28;20215;-49
2023/02/17 06:45:46;;;;;;;8.23;3.10;;;;;;;;;;5018937;28;20169;-48
2023/02/17 06:48:11;;;;;;;7.35;3.88;;;;;;;;;;5010213;28;20655;-52
2023/02/17 06:50:38;;;;;;;10.73;3.17;;;;;;;;;;5011773;28;20188;-50
2023/02/17 06:53:03;;;;;;;6.30;3.10;;;;;;;;;;5009367;28;20574;-50
2023/02/17 06:55:30;;;;;;;9.38;3.28;;;;;;;;;;5020537;28;20237;-50
2023/02/17 06:57:56;;;;;;;4.80;2.70;;;;;;;;;;5014110;28;20304;-50
2023/02/17 07:00:22;;;;;;;6.18;3.20;;;;;;;;;;5012113;28;20544;-50
2023/02/17 07:02:48;;;;;;;6.90;3.08;;;;;;;;;;5014648;28;20259;-50
2023/02/17 07:05:14;;;;;;;5.53;2.83;;;;;;;;;;5012304;28;20612;-50
2023/02/17 07:07:40;;;;;;;4.82;3.00;;;;;;;;;;5010677;28;20219;-50
2023/02/17 07:10:06;;;;;;;6.82;2.70;;;;;;;;;;5014167;28;20459;-50
2023/02/17 07:12:32;;;;;;;6.30;2.72;;;;;;;;;;5017914;28;20180;-50
2023/02/17 07:14:58;;;;;;;5.82;3.00;;;;;;;;;;5013058;28;20188;-50
2023/02/17 07:17:23;;;;;;;5.53;2.67;;;;;;;;;;5016612;28;20172;-50
2023/02/17 07:19:49;;;;;;;7.68;3.00;;;;;;;;;;5011501;28;20219;-52
2023/02/17 07:22:15;;;;;;;4.50;2.50;;;;;;;;;;5008158;28;20227;-51
2023/02/17 07:24:41;;;;;;;9.18;3.15;;;;;;;;;;5014168;28;20564;-51
2023/02/17 07:27:07;;;;;;;5.10;2.80;;;;;;;;;;5017012;28;20910;-51
2023/02/17 07:29:33;;;;;;;8.05;3.13;;;;;;;;;;5005790;28;20185;-52
2023/02/17 07:31:59;;;;;;;4.72;2.67;;;;;;;;;;5007586;28;20201;-52
2023/02/17 07:34:26;;;;;;;8.73;2.88;;;;;;;;;;5010161;28;20325;-51
2023/02/17 07:36:51;;;;;;;3.10;2.47;;;;;;;;;;5016782;28;20188;-51
2023/02/17 07:39:17;;;;;;;6.70;2.67;;;;;;;;;;5009276;28;20481;-52
2023/02/17 07:41:43;;;;;;;8.43;2.42;;;;;;;;;;5017829;28;20172;-52
2023/02/17 07:44:09;;;;;;;5.97;2.85;;;;;;;;;;5016119;28;20226;-51
2023/02/17 07:46:35;;;;;;;6.13;3.00;;;;;;;;;;5006592;28;20208;-51
2023/02/17 07:49:01;;;;;;;5.18;2.47;;;;;;;;;;5010624;28;20189;-51
2023/02/17 07:51:27;;;;;;;5.70;2.72;;;;;;;;;;5004478;28;20415;-52
2023/02/17 07:53:53;;;;;;;7.38;2.33;;;;;;;;;;5001146;28;20221;-51
2023/02/17 07:56:22;;;;;;;6.15;2.60;;;;;;;;;;5011790;28;20251;-52
2023/02/17 07:58:48;;;;;;;6.38;2.65;;;;;;;;;;5008528;28;20180;-52
2023/02/17 08:01:15;;;;;;;5.43;2.45;;;;;;;;;;5007265;28;20446;-51
2023/02/17 08:03:41;;;;;;;7.05;2.45;;;;;;;;;;5009293;28;20227;-51
2023/02/17 08:06:11;;;;;;;4.55;2.60;;;;;;;;;;5005379;28;20180;-51
2023/02/17 08:14:06;;;;;;;4.07;2.40;;;;;;;;;;5006728;28;20246;-52
2023/02/17 08:16:32;;;;;;;5.05;2.25;;;;;;;;;;5007080;28;20193;-51
2023/02/17 08:18:58;;;;;;;3.20;2.10;;;;;;;;;;5011590;28;20184;-53
2023/02/17 08:21:25;;;;;;;5.53;2.50;;;;;;;;;;5007216;28;20192;-51
2023/02/17 08:23:51;;;;;;;4.63;2.60;;;;;;;;;;5016417;28;20199;-52
2023/02/17 08:26:18;;;;;;;3.53;2.53;;;;;;;;;;5016285;28;20230;-52
2023/02/17 08:28:45;;;;;;;4.82;2.42;;;;;;;;;;5016670;28;20200;-52
2023/02/17 08:31:15;;;;;;;2.58;2.28;;;;;;;;;;5017239;28;20184;-52
2023/02/17 08:33:41;;;;;;;2.90;2.13;;;;;;;;;;5016143;28;20667;-52
2023/02/17 08:36:07;;;;;;;3.17;1.92;;;;;;;;;;5011481;28;20180;-52
2023/02/17 08:38:33;;;;;;;3.28;2.25;;;;;;;;;;5013964;28;20523;-51
2023/02/17 08:40:59;;;;;;;3.60;2.08;;;;;;;;;;5010669;28;20453;-51
2023/02/17 08:43:25;;;;;;;2.10;1.90;;;;;;;;;;5014498;28;20185;-52
2023/02/17 08:45:51;;;;;;;4.10;2.10;;;;;;;;;;5015334;28;20184;-49
2023/02/17 08:48:17;;;;;;;2.42;1.83;;;;;;;;;;5004694;28;20573;-49
2023/02/17 08:50:46;;;;;;;3.08;2.20;;;;;;;;;;5014695;28;20435;-50
2023/02/17 08:53:12;;;;;;;4.28;2.20;;;;;;;;;;5013056;28;20295;-50
2023/02/17 08:55:38;;;;;;;3.85;2.35;;;;;;;;;;5014807;28;20299;-52
2023/02/17 08:58:04;;;;;;;2.05;1.85;;;;;;;;;;5013445;28;20471;-52
2023/02/17 09:00:29;;;;;;;2.90;2.05;;;;;;;;;;5006065;28;20192;-51
2023/02/17 09:02:55;;;;;;;2.55;1.88;;;;;;;;;;5005014;28;20327;-51
2023/02/17 09:05:21;;;;;;;2.42;1.95;;;;;;;;;;5000825;28;20189;-52
2023/02/17 09:07:47;;;;;;;2.78;1.83;;;;;;;;;;5011205;28;20188;-52
2023/02/17 09:10:13;;;;;;;4.80;2.35;;;;;;;;;;5003277;28;20188;-51
2023/02/17 09:12:40;;;;;;;3.33;1.90;;;;;;;;;;5011217;28;20192;-52
2023/02/17 09:15:06;;;;;;;4.40;1.73;;;;;;;;;;5007723;28;20173;-51
2023/02/17 09:17:32;;;;;;;2.38;1.88;;;;;;;;;;5005729;28;20203;-52
2023/02/17 09:19:58;;;;;;;3.05;2.08;;;;;;;;;;5008869;28;20218;-52
2023/02/17 09:22:24;;;;;;;2.65;2.10;;;;;;;;;;5007799;28;20704;-52
2023/02/17 09:24:50;;;;;;;3.22;1.98;;;;;;;;;;5006098;28;20189;-49
2023/02/17 09:27:16;;;;;;;2.05;1.70;;;;;;;;;;5002048;28;20577;-49
2023/02/17 09:29:41;;;;;;;2.60;1.80;;;;;;;;;;5005871;28;20265;-49
2023/02/17 09:32:08;;;;;;;4.00;1.70;;;;;;;;;;5004800;28;20173;-49
2023/02/17 09:34:38;;;;;;;2.47;1.90;;;;;;;;;;5008415;28;20718;-49
2023/02/17 09:37:09;;;;;;;2.22;1.77;;;;;;;;;;5011420;28;20194;-50
2023/02/17 09:39:35;;;;;;;1.95;1.75;;;;;;;;;;5013529;28;20235;-50
2023/02/17 09:42:01;;;;;;;2.10;1.90;;;;;;;;;;5012764;28;20192;-52
2023/02/17 09:44:42;;;;;;;3.70;1.77;;;;;;;;;;5012086;28;20199;-50
2023/02/17 09:47:20;;;;;;;2.90;1.67;;;;;;;;;;5008155;28;20210;-50
2023/02/17 09:49:50;;;;;;;2.03;1.40;;;;;;;;;;5007153;28;20195;-50
2023/02/17 09:52:21;;;;;;;2.15;1.60;;;;;;;;;;5003402;28;20211;-50
2023/02/17 09:54:53;;;;;;;2.75;1.98;;;;;;;;;;5004695;28;20244;-50
2023/02/17 09:57:21;;;;;;;1.88;1.73;;;;;;;;;;5002117;28;20199;-50
2023/02/17 09:59:54;;;;;;;2.45;1.70;;;;;;;;;;5006636;28;20562;-50
2023/02/17 10:02:38;;;;;;;3.13;1.58;;;;;;;;;;5004316;28;20181;-51
2023/02/17 10:05:06;;;;;;;2.53;1.73;;;;;;;;;;5006673;28;20192;-50
2023/02/17 10:07:34;;;;;;;1.92;1.50;;;;;;;;;;4999171;28;20286;-50
2023/02/17 10:10:23;;;;;;;2.22;1.67;;;;;;;;;;5010577;28;20199;-49
2023/02/17 10:12:52;;;;;;;2.25;1.77;;;;;;;;;;5001296;28;20591;-50
2023/02/17 10:15:22;;;;;;;1.73;1.50;;;;;;;;;;5002405;28;20166;-50
2023/02/17 10:17:48;;;;;;;2.30;1.92;;;;;;;;;;5002900;28;20211;-50
2023/02/17 10:20:25;;;;;;;1.80;1.70;;;;;;;;;;5012783;28;20211;-52
2023/02/17 10:22:54;;;;;;;2.42;1.40;;;;;;;;;;5009042;28;20188;-50
2023/02/17 10:25:38;;;;;;;1.77;1.42;;;;;;;;;;5011596;28;20268;-50
2023/02/17 10:28:09;;;;;;;1.40;1.30;;;;;;;;;;5002304;28;20580;-52
2023/02/17 10:30:47;;;;;;;1.77;1.52;;;;;;;;;;5004578;28;20203;-50
2023/02/17 10:33:17;;;;;;;1.75;1.58;;;;;;;;;;5009131;28;20276;-52
2023/02/17 10:35:49;;;;;;;1.58;1.48;;;;;;;;;;5014125;28;20179;-49
2023/02/17 10:38:25;;;;;;;2.30;1.40;;;;;;;;;;5004605;28;20220;-49
2023/02/17 10:40:53;;;;;;;1.60;1.50;;;;;;;;;;5005682;28;20185;-50
2023/02/17 10:43:22;;;;;;;3.08;1.45;;;;;;;;;;5006016;28;20189;-50
2023/02/17 10:45:49;;;;;;;1.83;1.73;;;;;;;;;;5000749;28;20191;-50
2023/02/17 10:48:17;;;;;;;1.40;1.30;;;;;;;;;;5005453;28;20272;-50
2023/02/17 10:50:43;;;;;;;2.45;1.60;;;;;;;;;;5010647;28;20191;-49
2023/02/17 10:53:35;;;;;;;2.08;1.60;;;;;;;;;;5002196;28;20607;-50
2023/02/17 10:56:04;;;;;;;1.65;1.55;;;;;;;;;;5001410;28;20211;-50
2023/02/17 10:58:47;;;;;;;1.33;1.23;;;;;;;;;;5002335;28;20268;-50
2023/02/17 11:01:13;;;;;;;1.40;1.30;;;;;;;;;;4997846;28;20178;-50
2023/02/17 11:03:42;;;;;;;1.80;1.50;;;;;;;;;;5007742;28;20196;-52
2023/02/17 11:06:19;;;;;;;1.48;1.38;;;;;;;;;;4999178;28;20197;-52
2023/02/17 11:08:48;;;;;;;2.30;1.70;;;;;;;;;;5007963;28;20572;-52
2023/02/17 11:11:22;;;;;;;1.40;1.17;;;;;;;;;;5010845;28;20183;-51
2023/02/17 11:14:07;;;;;;;1.45;1.35;;;;;;;;;;5008836;28;20299;-50
2023/02/17 11:16:35;;;;;;;2.65;1.75;;;;;;;;;;5008348;28;20235;-50
2023/02/17 11:19:02;;;;;;;1.60;1.20;;;;;;;;;;5017523;28;20212;-50
2023/02/17 11:21:28;;;;;;;1.67;1.40;;;;;;;;;;5006242;28;20228;-50
2023/02/17 11:23:55;;;;;;;1.50;1.27;;;;;;;;;;5016414;28;20533;-52
2023/02/17 11:26:22;;;;;;;1.38;1.27;;;;;;;;;;5011905;28;20235;-50
2023/02/17 11:28:48;;;;;;;1.40;1.30;;;;;;;;;;5013584;28;20196;-50
2023/02/17 11:31:28;;;;;;;1.63;1.25;;;;;;;;;;5017508;28;20189;-50
2023/02/17 11:33:54;;;;;;;1.42;1.30;;;;;;;;;;4999430;28;20224;-51
2023/02/17 11:36:25;;;;;;;1.67;1.33;;;;;;;;;;5002666;28;20181;-50
2023/02/17 11:38:51;;;;;;;1.50;1.40;;;;;;;;;;5001595;28;20220;-50
2023/02/17 11:41:17;;;;;;;1.85;1.55;;;;;;;;;;5011879;28;20240;-51
2023/02/17 11:43:51;;;;;;;1.10;1.05;;;;;;;;;;5016644;28;20181;-50
2023/02/17 11:46:29;;;;;;;1.63;1.20;;;;;;;;;;5016420;28;20565;-50
2023/02/17 11:49:14;;;;;;;1.58;1.48;;;;;;;;;;5016233;28;20242;-50
2023/02/17 11:51:59;;;;;;;1.55;1.45;;;;;;;;;;5016283;28;20192;-50
2023/02/17 11:54:25;;;;;;;1.98;1.40;;;;;;;;;;5008254;28;20217;-49
2023/02/17 11:56:58;;;;;;;15.40;2.08;;;;;;;;;;5013399;28;20263;-47
2023/02/17 11:59:33;;;;;;;2.95;1.35;;;;;;;;;;5012124;28;20215;-50
2023/02/17 12:02:10;;;;;;;7.15;1.50;;;;;;;;;;5012929;28;20187;-48
2023/02/17 12:04:55;;;;;;;7.53;1.67;;;;;;;;;;5012734;28;20184;-50
2023/02/17 12:07:28;;;;;;;2.20;1.70;;;;;;;;;;5012955;28;20207;-52
2023/02/17 12:09:54;;;;;;;2.88;1.50;;;;;;;;;;5009252;28;20228;-51
2023/02/17 12:12:20;;;;;;;2.55;1.30;;;;;;;;;;5015886;28;20454;-51
2023/02/17 12:15:02;;;;;;;2.50;1.50;;;;;;;;;;5017175;28;20212;-51
2023/02/17 12:17:37;;;;;;;2.65;1.40;;;;;;;;;;5015474;28;20177;-55
2023/02/17 12:20:08;;;;;;;4.63;1.35;;;;;;;;;;5008227;28;20191;-52
2023/02/17 12:22:46;;;;;;;3.72;1.52;;;;;;;;;;5003879;28;20181;-53
2023/02/17 12:25:15;;;;;;;6.32;1.50;;;;;;;;;;5009425;28;20184;-51
2023/02/17 12:27:50;;;;;;;4.07;1.40;;;;;;;;;;5009314;28;20252;-63
2023/02/17 12:30:34;;;;;;;3.03;1.40;;;;;;;;;;5014897;28;20250;-63
2023/02/17 12:33:11;;;;;;;2.22;1.50;;;;;;;;;;5016361;28;20223;-61
2023/02/17 12:35:44;;;;;;;3.97;1.85;;;;;;;;;;5015887;28;20187;-59
2023/02/17 12:38:17;;;;;;;8.57;1.80;;;;;;;;;;5015197;28;20651;-54
2023/02/17 12:40:46;;;;;;;3.55;1.35;;;;;;;;;;5013409;28;20226;-57
2023/02/17 12:43:20;;;;;;;15.30;1.73;;;;;;;;;;5015020;28;20452;-58
2023/02/17 12:45:47;;;;;;;9.77;1.85;;;;;;;;;;5009640;28;20564;-53
2023/02/17 12:48:16;;;;;;;9.70;1.58;;;;;;;;;;5014478;28;20177;-59
2023/02/17 12:50:51;;;;;;;9.25;1.83;;;;;;;;;;5015263;28;20180;-60
2023/02/17 12:53:23;;;;;;;4.32;1.40;;;;;;;;;;5014565;28;20212;-54
2023/02/17 12:55:52;;;;;;;3.42;1.48;;;;;;;;;;5008210;28;20568;-48
2023/02/17 12:58:24;;;;;;;4.55;1.70;;;;;;;;;;5007898;28;20185;-59
2023/02/17 13:00:54;;;;;;;4.05;1.25;;;;;;;;;;5008085;28;20272;-54
2023/02/17 13:03:20;;;;;;;2.53;1.20;;;;;;;;;;5012902;28;20208;-51
2023/02/17 13:06:06;;;;;;;2.92;1.23;;;;;;;;;;5006196;28;20185;-50
2023/02/17 13:08:32;;;;;;;3.35;1.20;;;;;;;;;;5010961;28;20188;-59
2023/02/17 13:11:06;;;;;;;3.35;1.13;;;;;;;;;;5005196;28;20192;-59
2023/02/17 13:13:33;;;;;;;3.63;1.17;;;;;;;;;;5006208;28;20224;-59
2023/02/17 13:16:09;;;;;;;2.70;1.20;;;;;;;;;;5009263;28;21146;-59
2023/02/17 13:18:36;;;;;;;2.78;1.10;;;;;;;;;;5012879;28;20180;-52
2023/02/17 13:21:17;;;;;;;4.05;1.55;;;;;;;;;;5007657;28;20187;-52
2023/02/17 13:23:46;;;;;;;3.35;1.40;;;;;;;;;;5009066;28;20192;-52
2023/02/17 13:26:12;;;;;;;3.88;1.13;;;;;;;;;;5008093;28;20173;-51
2023/02/17 13:28:39;;;;;;;1.33;1.20;;;;;;;;;;5011166;28;20512;-52
2023/02/17 13:31:31;;;;;;;2.45;1.30;;;;;;;;;;5009304;28;20189;-52
2023/02/17 13:33:58;;;;;;;1.73;1.10;;;;;;;;;;5004944;28;20627;-52
2023/02/17 13:36:27;;;;;;;1.17;1.08;;;;;;;;;;5007854;28;20185;-51
2023/02/17 13:39:00;;;;;;;2.80;1.20;;;;;;;;;;5014061;28;20219;-52
2023/02/17 13:41:26;;;;;;;3.20;1.10;;;;;;;;;;5017049;28;20219;-50
2023/02/17 13:43:52;;;;;;;1.10;0.80;;;;;;;;;;5017226;28;20264;-51
2023/02/17 13:46:23;;;;;;;1.33;1.10;;;;;;;;;;5017573;28;20585;-52
2023/02/17 13:48:57;;;;;;;1.27;1.17;;;;;;;;;;5017319;28;20168;-52
2023/02/17 13:51:26;;;;;;;2.35;1.00;;;;;;;;;;5017835;28;20260;-52
2023/02/17 13:53:52;;;;;;;1.27;0.90;;;;;;;;;;5017162;28;20202;-52
2023/02/17 13:56:26;;;;;;;1.15;1.05;;;;;;;;;;5017270;28;20433;-52
2023/02/17 13:58:52;;;;;;;2.10;1.10;;;;;;;;;;5017118;28;20204;-52
2023/02/17 14:01:20;;;;;;;2.72;0.90;;;;;;;;;;5017285;28;20479;-52
2023/02/17 14:03:49;;;;;;;1.52;1.08;;;;;;;;;;5017199;28;20175;-51
2023/02/17 14:06:22;;;;;;;1.48;1.00;;;;;;;;;;5016924;28;20570;-52
2023/02/17 14:08:48;;;;;;;1.00;0.90;;;;;;;;;;5017078;28;20196;-51
2023/02/17 14:11:16;;;;;;;2.20;1.00;;;;;;;;;;5017002;28;20498;-52
2023/02/17 14:13:47;;;;;;;1.30;1.10;;;;;;;;;;5017104;28;20193;-52
2023/02/17 14:16:31;;;;;;;2.22;0.93;;;;;;;;;;5017502;28;20478;-52
2023/02/17 14:19:05;;;;;;;1.10;1.00;;;;;;;;;;5017156;28;20179;-52
2023/02/17 14:21:31;;;;;;;1.75;1.13;;;;;;;;;;5017043;28;20164;-51
2023/02/17 14:23:58;;;;;;;1.67;1.10;;;;;;;;;;5017048;28;20540;-52
2023/02/17 14:26:38;;;;;;;1.20;1.05;;;;;;;;;;5016542;28;20176;-52
2023/02/17 14:29:06;;;;;;;1.08;0.85;;;;;;;;;;5017017;28;20435;-53
2023/02/17 14:31:52;;;;;;;3.75;1.08;;;;;;;;;;5017139;28;20173;-52
2023/02/17 14:34:25;;;;;;;2.00;1.20;;;;;;;;;;5011114;28;20587;-51
2023/02/17 14:36:51;;;;;;;1.20;1.10;;;;;;;;;;5010010;28;20181;-51
2023/02/17 14:39:17;;;;;;;0.80;0.80;;;;;;;;;;5014164;28;20489;-53
2023/02/17 14:41:44;;;;;;;1.88;0.93;;;;;;;;;;5014172;28;20235;-51
2023/02/17 14:44:09;;;;;;;0.93;0.93;;;;;;;;;;5008916;28;20583;-52
2023/02/17 14:46:37;;;;;;;0.88;0.70;;;;;;;;;;5009649;28;20196;-52
2023/02/17 14:49:03;;;;;;;1.10;0.80;;;;;;;;;;5008108;28;20195;-51
2023/02/17 14:51:33;;;;;;;2.35;1.08;;;;;;;;;;5013842;28;20180;-52
2023/02/17 14:54:01;;;;;;;1.10;1.00;;;;;;;;;;5011169;28;20208;-52
2023/02/17 14:56:35;;;;;;;2.30;1.30;;;;;;;;;;5018106;28;20169;-52